createdAt,value
2023-04-20T00:00:25.482Z,93022.28
2023-04-20T00:02:52.138Z,93040.38
2023-04-20T00:05:19.127Z,93039.84
2023-04-20T00:07:45.531Z,93042.34
2023-04-20T00:10:11.987Z,93039.41
2023-04-20T00:12:38.769Z,93045.03
2023-04-20T00:15:06.130Z,93034.66
2023-04-20T00:17:32.663Z,93030.75
2023-04-20T00:19:59.645Z,93033.72
2023-04-20T00:22:26.307Z,93029.97
2023-04-20T00:24:52.712Z,93012.69
2023-04-20T00:27:19.676Z,93032.50
2023-04-20T00:29:46.339Z,93114.31
2023-04-20T00:32:12.818Z,93125.06
2023-04-20T00:34:39.726Z,93120.03
2023-04-20T00:37:06.323Z,93149.69
2023-04-20T00:39:32.758Z,93144.44
2023-04-20T00:42:09.412Z,93141.72
2023-04-20T00:44:36.004Z,93137.44
2023-04-20T00:47:02.860Z,93137.09
2023-04-20T00:49:31.723Z,93135.59
2023-04-20T00:51:59.656Z,93128.31
2023-04-20T00:54:28.281Z,93121.34
2023-04-20T00:56:57.858Z,93102.69
2023-04-20T00:59:24.888Z,93093.69
2023-04-20T01:01:51.545Z,93081.97
2023-04-20T01:04:18.994Z,93075.59
2023-04-20T01:06:46.617Z,93066.25
2023-04-20T01:09:13.207Z,93049.28
2023-04-20T01:11:39.771Z,93059.94
2023-04-20T01:14:06.841Z,93075.34
2023-04-20T01:16:35.180Z,93062.16
2023-04-20T01:19:01.804Z,93066.38
2023-04-20T01:21:28.282Z,93054.31
2023-04-20T01:23:55.393Z,93055.81
2023-04-20T01:26:23.023Z,93069.72
2023-04-20T01:28:49.518Z,93056.69
2023-04-20T01:31:16.562Z,93071.09
2023-04-20T01:33:43.218Z,93072.00
2023-04-20T01:36:10.523Z,93061.91
2023-04-20T01:38:37.387Z,93053.50
2023-04-20T01:41:06.959Z,93053.41
2023-04-20T01:43:35.791Z,93051.03
2023-04-20T01:46:02.528Z,93052.75
2023-04-20T01:48:29.267Z,93034.81
2023-04-20T01:50:55.822Z,93039.13
2023-04-20T01:53:22.299Z,93038.44
2023-04-20T01:55:49.636Z,93035.94
2023-04-20T01:58:16.130Z,93031.97
2023-04-20T02:00:43.345Z,93024.94
2023-04-20T02:03:09.919Z,93028.00
2023-04-20T02:05:36.549Z,93024.25
2023-04-20T02:08:03.728Z,93010.81
2023-04-20T02:10:30.141Z,93012.66
2023-04-20T02:12:56.549Z,93016.63
2023-04-20T02:15:23.473Z,93029.13
2023-04-20T02:17:52.192Z,93029.25
2023-04-20T02:20:21.795Z,93027.22
2023-04-20T02:22:48.758Z,93025.28
2023-04-20T02:25:15.290Z,93014.38
2023-04-20T02:27:41.873Z,93014.06
2023-04-20T02:30:08.845Z,93017.56
2023-04-20T02:32:35.429Z,93009.03
2023-04-20T02:35:03.983Z,93007.47
2023-04-20T02:37:31.275Z,93012.69
2023-04-20T02:39:57.792Z,93023.03
2023-04-20T02:42:24.292Z,93022.34
2023-04-20T02:44:53.035Z,93027.56
2023-04-20T02:47:19.625Z,93022.13
2023-04-20T02:49:46.146Z,93029.28
2023-04-20T02:52:13.133Z,93017.56
2023-04-20T02:54:40.637Z,93020.19
2023-04-20T02:57:07.435Z,93017.56
2023-04-20T02:59:33.893Z,93026.34
2023-04-20T03:02:00.817Z,93041.19
2023-04-20T03:04:27.806Z,93039.38
2023-04-20T03:06:54.626Z,93037.47
2023-04-20T03:09:21.736Z,93038.13
2023-04-20T03:11:48.569Z,93020.63
2023-04-20T03:14:15.028Z,93017.31
2023-04-20T03:16:42.378Z,93013.47
2023-04-20T03:19:08.945Z,93014.13
2023-04-20T03:21:36.366Z,93006.41
2023-04-20T03:24:02.975Z,92999.69
2023-04-20T03:26:29.489Z,93013.38
2023-04-20T03:28:56.529Z,93015.88
2023-04-20T03:31:23.127Z,92998.94
2023-04-20T03:33:49.540Z,93003.50
2023-04-20T03:36:16.552Z,92998.72
2023-04-20T03:38:43.215Z,92991.78
2023-04-20T03:41:09.664Z,92995.63
2023-04-20T03:43:36.505Z,93004.03
2023-04-20T03:46:02.997Z,93000.50
2023-04-20T03:48:29.498Z,92997.41
2023-04-20T03:50:56.156Z,92986.81
2023-04-20T03:53:22.915Z,93016.13
2023-04-20T03:55:49.351Z,93021.03
2023-04-20T03:58:16.102Z,93012.38
2023-04-20T04:00:42.607Z,93000.06
2023-04-20T04:03:10.378Z,93001.91
2023-04-20T04:05:36.925Z,92999.84
2023-04-20T04:08:03.487Z,93002.69
2023-04-20T04:10:30.473Z,92998.25
2023-04-20T04:12:56.912Z,93021.94
2023-04-20T04:15:23.384Z,93014.75
2023-04-20T04:17:50.429Z,93006.78
2023-04-20T04:20:17.028Z,93017.72
2023-04-20T04:22:43.899Z,93009.75
2023-04-20T04:25:11.669Z,93016.09
2023-04-20T04:27:39.825Z,93014.94
2023-04-20T04:30:07.757Z,93012.31
2023-04-20T04:32:37.526Z,93010.81
2023-04-20T04:35:04.699Z,93003.31
2023-04-20T04:37:31.523Z,93014.94
2023-04-20T04:39:58.727Z,93011.28
2023-04-20T04:42:25.328Z,93011.97
2023-04-20T04:44:53.589Z,93011.63
2023-04-20T04:47:22.441Z,93001.03
2023-04-20T04:49:49.600Z,93002.59
2023-04-20T04:52:16.185Z,93004.06
2023-04-20T04:54:42.594Z,92989.66
2023-04-20T04:57:09.085Z,93011.44
2023-04-20T04:59:36.400Z,93011.03
2023-04-20T05:02:03.262Z,93005.97
2023-04-20T05:04:29.882Z,93007.63
2023-04-20T05:06:56.465Z,92998.06
2023-04-20T05:09:23.366Z,92997.81
2023-04-20T05:11:49.763Z,93011.66
2023-04-20T05:14:16.674Z,92990.06
2023-04-20T05:16:43.142Z,92999.88
2023-04-20T05:19:10.016Z,92992.88
2023-04-20T05:21:38.117Z,92968.38
2023-04-20T05:24:04.910Z,92987.00
2023-04-20T05:26:31.733Z,92981.91
2023-04-20T05:28:58.163Z,92983.59
2023-04-20T05:31:25.177Z,92964.63
2023-04-20T05:33:51.769Z,92978.50
2023-04-20T05:36:18.178Z,92989.59
2023-04-20T05:38:45.133Z,92985.25
2023-04-20T05:41:11.577Z,92984.63
2023-04-20T05:43:38.357Z,92980.31
2023-04-20T05:46:05.805Z,92965.88
2023-04-20T05:48:32.246Z,92975.47
2023-04-20T05:50:58.780Z,92948.25
2023-04-20T05:53:25.714Z,92958.66
2023-04-20T05:55:53.214Z,92954.28
2023-04-20T05:58:19.693Z,92956.84
2023-04-20T06:00:46.226Z,92952.41
2023-04-20T06:03:13.547Z,92932.81
2023-04-20T06:05:40.238Z,92939.78
2023-04-20T06:08:06.684Z,92952.94
2023-04-20T06:10:34.819Z,92947.72
2023-04-20T06:13:01.377Z,92966.25
2023-04-20T06:15:27.979Z,92973.34
2023-04-20T06:17:54.956Z,92981.13
2023-04-20T06:20:21.565Z,92985.94
2023-04-20T06:22:48.740Z,92979.22
2023-04-20T06:25:18.545Z,92965.22
2023-04-20T06:27:45.226Z,92966.22
2023-04-20T06:30:12.252Z,92963.44
2023-04-20T06:32:39.277Z,92966.59
2023-04-20T06:35:09.277Z,92967.94
2023-04-20T06:37:36.685Z,92954.50
2023-04-20T06:40:08.817Z,92939.88
2023-04-20T06:42:36.384Z,92951.56
2023-04-20T06:45:03.116Z,92946.22
2023-04-20T06:47:31.936Z,92953.41
2023-04-20T06:49:59.552Z,92937.44
2023-04-20T06:52:26.531Z,92934.44
2023-04-20T06:54:53.650Z,92933.66
2023-04-20T06:57:20.264Z,92946.03
2023-04-20T06:59:46.660Z,92943.28
2023-04-20T07:02:13.572Z,92940.72
2023-04-20T07:04:40.422Z,92930.34
2023-04-20T07:07:06.883Z,92928.25
2023-04-20T07:09:33.853Z,92937.13
2023-04-20T07:12:00.952Z,92941.41
2023-04-20T07:14:27.376Z,92908.09
2023-04-20T07:16:55.754Z,92919.28
2023-04-20T07:19:22.319Z,92911.94
2023-04-20T07:21:48.725Z,92952.31
2023-04-20T07:24:15.660Z,92923.31
2023-04-20T07:26:42.115Z,92927.53
2023-04-20T07:29:08.544Z,92959.13
2023-04-20T07:31:35.635Z,92930.72
2023-04-20T07:34:02.224Z,92917.09
2023-04-20T07:36:29.490Z,92927.44
2023-04-20T07:38:56.354Z,92941.63
2023-04-20T07:41:23.154Z,92934.13
2023-04-20T07:43:49.583Z,92940.09
2023-04-20T07:46:23.907Z,92918.25
2023-04-20T07:48:50.453Z,92948.34
2023-04-20T07:51:17.159Z,92974.03
2023-04-20T07:53:44.418Z,92982.47
2023-04-20T07:56:11.161Z,93011.44
2023-04-20T07:58:40.890Z,93024.66
2023-04-20T08:01:07.714Z,93023.19
2023-04-20T08:03:35.499Z,93017.22
2023-04-20T08:06:02.761Z,93021.75
2023-04-20T08:08:29.715Z,93016.66
2023-04-20T08:10:58.569Z,93000.88
2023-04-20T08:13:25.715Z,93003.44
2023-04-20T08:15:52.150Z,93016.38
2023-04-20T08:18:21.212Z,93011.69
2023-04-20T08:20:48.404Z,93001.13
2023-04-20T08:23:14.816Z,93004.16
2023-04-20T08:25:41.362Z,92981.69
2023-04-20T08:28:11.849Z,92996.72
2023-04-20T08:30:41.943Z,92997.28
2023-04-20T08:33:08.469Z,92987.47
2023-04-20T08:35:35.551Z,92993.81
2023-04-20T08:38:02.068Z,93034.09
2023-04-20T08:40:30.025Z,93087.19
2023-04-20T08:42:57.786Z,93078.69
2023-04-20T08:45:24.286Z,93045.50
2023-04-20T08:47:50.814Z,93059.31
2023-04-20T08:50:19.885Z,93042.41
2023-04-20T08:52:46.803Z,93044.03
2023-04-20T08:55:19.705Z,93046.09
2023-04-20T08:57:49.064Z,93035.94
2023-04-20T09:00:16.343Z,93029.06
2023-04-20T09:02:54.268Z,93008.00
2023-04-20T09:05:28.853Z,92996.53
2023-04-20T09:07:58.959Z,92996.22
2023-04-20T09:10:27.207Z,92972.16
2023-04-20T09:12:53.805Z,92960.66
2023-04-20T09:15:32.073Z,92960.41
2023-04-20T09:17:58.724Z,92973.47
2023-04-20T09:20:35.157Z,92928.44
2023-04-20T09:23:14.881Z,92948.75
2023-04-20T09:25:43.795Z,92947.16
2023-04-20T09:28:10.258Z,92940.91
2023-04-20T09:30:45.603Z,92929.91
2023-04-20T09:33:14.301Z,92913.16
2023-04-20T09:35:45.745Z,92917.34
2023-04-20T09:38:16.017Z,92894.28
2023-04-20T09:40:42.437Z,92902.06
2023-04-20T09:43:20.304Z,92875.88
2023-04-20T09:45:46.793Z,92846.47
2023-04-20T09:48:18.834Z,92805.97
2023-04-20T09:50:50.045Z,92825.34
2023-04-20T09:53:18.986Z,92778.56
2023-04-20T09:55:47.595Z,92738.13
2023-04-20T09:58:14.242Z,92720.00
2023-04-20T10:00:42.506Z,92727.09
2023-04-20T10:03:11.041Z,92727.63
2023-04-20T10:05:39.638Z,92733.38
2023-04-20T10:08:07.408Z,92736.56
2023-04-20T10:10:48.003Z,92707.59
2023-04-20T10:13:17.185Z,92699.19
2023-04-20T10:15:43.707Z,92676.00
2023-04-20T10:18:25.472Z,92663.31
2023-04-20T10:21:04.097Z,92638.97
2023-04-20T10:23:30.817Z,92647.97
2023-04-20T10:26:00.433Z,92646.84
2023-04-20T10:28:41.846Z,92701.53
2023-04-20T10:31:09.088Z,92700.19
2023-04-20T10:33:35.677Z,92721.28
2023-04-20T10:36:02.479Z,92730.22
2023-04-20T10:38:35.765Z,92733.88
2023-04-20T10:41:10.392Z,92731.25
2023-04-20T10:43:41.998Z,92735.72
2023-04-20T10:46:24.678Z,92742.84
2023-04-20T10:49:01.218Z,92726.22
2023-04-20T10:51:29.181Z,92724.91
2023-04-20T10:54:07.210Z,92732.81
2023-04-20T10:56:42.044Z,92739.91
2023-04-20T10:59:16.152Z,92735.44
2023-04-20T11:01:43.840Z,92735.97
2023-04-20T11:04:11.735Z,92742.53
2023-04-20T11:06:42.954Z,92770.75
2023-04-20T11:09:28.703Z,92782.84
2023-04-20T11:12:23.773Z,92782.84
2023-04-20T11:15:00.078Z,92770.50
2023-04-20T11:17:36.717Z,92772.06
2023-04-20T11:20:13.865Z,92751.72
2023-04-20T11:22:43.501Z,92759.59
2023-04-20T11:25:13.863Z,92777.81
2023-04-20T11:27:44.434Z,92770.16
2023-04-20T11:30:11.836Z,92768.59
2023-04-20T11:32:41.890Z,92772.25
2023-04-20T11:35:14.056Z,92791.53
2023-04-20T11:37:48.991Z,92788.91
2023-04-20T11:40:15.815Z,92793.09
2023-04-20T11:42:42.525Z,92804.41
2023-04-20T11:45:09.734Z,92819.41
2023-04-20T11:47:36.135Z,92820.75
2023-04-20T11:50:02.738Z,92822.34
2023-04-20T11:52:29.677Z,92833.34
2023-04-20T11:54:56.371Z,92849.72
2023-04-20T11:57:23.944Z,92843.09
2023-04-20T11:59:50.947Z,92854.69
2023-04-20T12:02:17.548Z,92879.19
2023-04-20T12:04:44.380Z,92892.91
2023-04-20T12:07:11.361Z,92910.28
2023-04-20T12:09:38.442Z,92905.53
2023-04-20T12:12:05.732Z,92919.25
2023-04-20T12:14:35.544Z,92917.38
2023-04-20T12:17:06.610Z,92930.31
2023-04-20T12:19:33.105Z,92960.81
2023-04-20T12:21:59.568Z,92975.56
2023-04-20T12:24:26.693Z,92976.91
2023-04-20T12:26:53.094Z,92983.47
2023-04-20T12:29:19.789Z,92970.06
2023-04-20T12:31:47.216Z,92967.69
2023-04-20T12:34:13.680Z,92971.41
2023-04-20T12:36:40.173Z,92983.56
2023-04-20T12:39:07.092Z,93016.19
2023-04-20T12:41:34.311Z,92992.00
2023-04-20T12:44:02.664Z,92990.91
2023-04-20T12:46:30.931Z,93017.75
2023-04-20T12:48:57.324Z,93015.66
2023-04-20T12:51:24.296Z,93039.09
2023-04-20T12:53:50.692Z,93035.66
2023-04-20T12:56:17.113Z,93019.09
2023-04-20T12:58:44.048Z,92976.94
2023-04-20T13:01:10.687Z,92999.38
2023-04-20T13:03:37.586Z,93027.00
2023-04-20T13:06:05.414Z,93045.09
2023-04-20T13:08:31.814Z,93024.34
2023-04-20T13:10:58.223Z,93016.19
2023-04-20T13:13:24.980Z,93042.50
2023-04-20T13:15:53.620Z,93000.41
2023-04-20T13:18:20.644Z,93007.28
2023-04-20T13:20:47.531Z,93015.94
2023-04-20T13:25:41.622Z,93023.56
2023-04-20T13:28:08.359Z,93043.75
2023-04-20T13:30:34.940Z,93038.50
2023-04-20T13:33:01.385Z,93016.16
2023-04-20T13:35:28.433Z,93002.50
2023-04-20T13:37:54.904Z,93001.94
2023-04-20T13:40:21.685Z,93020.34
2023-04-20T13:42:48.534Z,93010.84
2023-04-20T13:45:15.075Z,93013.47
2023-04-20T13:47:42.146Z,92995.88
2023-04-20T13:50:09.913Z,92995.59
2023-04-20T13:52:36.428Z,92986.13
2023-04-20T13:55:04.765Z,92989.53
2023-04-20T13:57:34.650Z,92993.47
2023-04-20T14:00:01.365Z,92988.47
2023-04-20T14:02:29.505Z,92980.03
2023-04-20T14:04:56.891Z,92973.47
2023-04-20T14:07:23.491Z,92966.09
2023-04-20T14:09:50.860Z,92974.00
2023-04-20T14:12:17.385Z,92940.31
2023-04-20T14:14:43.962Z,92950.31
2023-04-20T14:17:11.517Z,92945.56
2023-04-20T14:19:38.331Z,92907.38
2023-04-20T14:22:04.822Z,92913.44
2023-04-20T14:24:31.548Z,92884.97
2023-04-20T14:26:59.830Z,92883.94
2023-04-20T14:29:26.207Z,92880.22
2023-04-20T14:31:53.047Z,92878.66
2023-04-20T14:34:19.658Z,92866.53
2023-04-20T14:36:46.366Z,92861.53
2023-04-20T14:39:13.201Z,92876.28
2023-04-20T14:41:39.604Z,92876.78
2023-04-20T14:44:06.052Z,92855.16
2023-04-20T14:46:32.567Z,92878.66
2023-04-20T14:48:59.049Z,92868.63
2023-04-20T14:51:25.496Z,92875.44
2023-04-20T14:53:52.564Z,92881.75
2023-04-20T14:56:19.001Z,92896.59
2023-04-20T14:58:47.899Z,92911.56
2023-04-20T15:01:15.179Z,92916.34
2023-04-20T15:03:41.694Z,92914.75
2023-04-20T15:06:08.537Z,92951.34
2023-04-20T15:08:35.816Z,92962.69
2023-04-20T15:11:03.922Z,92956.09
2023-04-20T15:13:30.523Z,92960.84
2023-04-20T15:15:57.388Z,92950.31
2023-04-20T15:18:23.833Z,92947.41
2023-04-20T15:20:53.418Z,92927.66
2023-04-20T15:23:20.450Z,92941.63
2023-04-20T15:25:47.017Z,92944.50
2023-04-20T15:28:13.594Z,92937.66
2023-04-20T15:30:40.458Z,92935.56
2023-04-20T15:33:07.216Z,92929.75
2023-04-20T15:35:35.217Z,92920.81
2023-04-20T15:38:01.688Z,92939.78
2023-04-20T15:40:28.286Z,92935.31
2023-04-20T15:42:56.267Z,92930.81
2023-04-20T15:45:23.102Z,92949.78
2023-04-20T15:47:49.674Z,92960.03
2023-04-20T15:50:17.217Z,92961.34
2023-04-20T15:52:43.947Z,92959.78
2023-04-20T15:55:11.047Z,92940.28
2023-04-20T15:57:38.033Z,92941.28
2023-04-20T16:00:04.889Z,92931.03
2023-04-20T16:02:31.497Z,92932.06
2023-04-20T16:04:58.717Z,92935.50
2023-04-20T16:07:25.347Z,92925.25
2023-04-20T16:09:51.728Z,92923.41
2023-04-20T16:12:18.295Z,92924.97
2023-04-20T16:14:44.695Z,92916.00
2023-04-20T16:17:11.333Z,92905.47
2023-04-20T16:19:37.851Z,92911.00
2023-04-20T16:22:06.073Z,92907.78
2023-04-20T16:24:32.486Z,92896.78
2023-04-20T16:27:01.797Z,92903.88
2023-04-20T16:29:28.592Z,92899.94
2023-04-20T16:31:55.013Z,92889.69
2023-04-20T16:34:21.968Z,92869.69
2023-04-20T16:36:50.138Z,92862.06
2023-04-20T16:39:18.791Z,92862.59
2023-04-20T16:41:45.436Z,92857.59
2023-04-20T16:44:16.666Z,92847.59
2023-04-20T16:46:44.496Z,92837.06
2023-04-20T16:49:10.994Z,92842.06
2023-04-20T16:51:37.461Z,92854.94
2023-04-20T16:54:04.492Z,92830.75
2023-04-20T16:56:31.022Z,92817.06
2023-04-20T16:58:57.450Z,92812.84
2023-04-20T17:01:23.992Z,92832.34
2023-04-20T17:03:51.397Z,92822.59
2023-04-20T17:06:18.066Z,92828.66
2023-04-20T17:08:45.032Z,92834.44
2023-04-20T17:11:11.510Z,92821.81
2023-04-20T17:13:38.551Z,92838.91
2023-04-20T17:16:05.290Z,92835.50
2023-04-20T17:18:34.150Z,92832.84
2023-04-20T17:21:02.232Z,92837.06
2023-04-20T17:23:28.720Z,92876.31
2023-04-20T17:25:55.499Z,92889.44
2023-04-20T17:28:22.167Z,92891.00
2023-04-20T17:30:48.636Z,92907.09
2023-04-20T17:33:15.099Z,92909.16
2023-04-20T17:35:41.960Z,92929.69
2023-04-20T17:38:08.475Z,92942.31
2023-04-20T17:40:34.970Z,92941.28
2023-04-20T17:43:02.499Z,92955.75
2023-04-20T17:45:29.163Z,92950.75
2023-04-20T17:47:55.699Z,92956.53
2023-04-20T17:50:23.109Z,92959.16
2023-04-20T17:52:49.606Z,92973.38
2023-04-20T17:55:16.050Z,92963.91
2023-04-20T17:57:42.879Z,92949.72
2023-04-20T18:00:11.636Z,92935.78
2023-04-20T18:02:38.888Z,92937.13
2023-04-20T18:05:06.055Z,92923.16
2023-04-20T18:07:32.573Z,92948.41
2023-04-20T18:09:59.341Z,92961.28
2023-04-20T18:12:26.320Z,92983.31
2023-04-20T18:14:52.717Z,92961.81
2023-04-20T18:17:19.145Z,92953.13
2023-04-20T18:19:46.387Z,92981.03
2023-04-20T18:22:12.896Z,92991.53
2023-04-20T18:24:39.352Z,92980.53
2023-04-20T18:27:06.352Z,92983.41
2023-04-20T18:29:32.763Z,92988.41
2023-04-20T18:32:01.078Z,92982.38
2023-04-20T18:34:31.267Z,92987.13
2023-04-20T18:36:58.573Z,92971.88
2023-04-20T18:39:25.446Z,92981.88
2023-04-20T18:41:52.217Z,92978.44
2023-04-20T18:44:18.966Z,92977.13
2023-04-20T18:46:45.689Z,92988.69
2023-04-20T18:49:12.531Z,93001.28
2023-04-20T18:51:38.912Z,93001.25
2023-04-20T18:54:05.933Z,93006.00
2023-04-20T18:56:32.723Z,93011.03
2023-04-20T18:59:00.271Z,93021.28
2023-04-20T19:01:27.541Z,93025.72
2023-04-20T19:03:54.339Z,93017.06
2023-04-20T19:06:20.826Z,93021.78
2023-04-20T19:08:47.344Z,93026.50
2023-04-20T19:11:13.762Z,93042.31
2023-04-20T19:13:44.332Z,93029.19
2023-04-20T19:16:11.871Z,93043.38
2023-04-20T19:18:39.038Z,93043.38
2023-04-20T19:21:05.866Z,93037.66
2023-04-20T19:23:32.367Z,93057.41
2023-04-20T19:25:58.961Z,93041.34
2023-04-20T19:28:25.439Z,93052.41
2023-04-20T19:30:52.118Z,93039.78
2023-04-20T19:33:18.804Z,93047.13
2023-04-20T19:35:50.881Z,93069.97
2023-04-20T19:38:18.718Z,93056.03
2023-04-20T19:40:45.517Z,93047.13
2023-04-20T19:43:12.001Z,93048.69
2023-04-20T19:45:39.454Z,93059.19
2023-04-20T19:48:06.315Z,93053.94
2023-04-20T19:50:33.542Z,93053.91
2023-04-20T19:53:00.447Z,93057.84
2023-04-20T19:55:26.883Z,93044.00
2023-04-20T19:57:53.681Z,93049.75
2023-04-20T20:00:20.378Z,93046.31
2023-04-20T20:02:47.470Z,93108.44
2023-04-20T20:05:14.227Z,93115.00
2023-04-20T20:07:40.673Z,93132.31
2023-04-20T20:10:08.424Z,93135.47
2023-04-20T20:12:35.077Z,93138.09
2023-04-20T20:15:03.347Z,93138.09
2023-04-20T20:17:30.161Z,93135.00
2023-04-20T20:19:56.547Z,93131.31
2023-04-20T20:22:23.006Z,93125.00
2023-04-20T20:24:52.393Z,93125.00
2023-04-20T20:27:18.893Z,93125.03
2023-04-20T20:29:45.424Z,93137.03
2023-04-20T20:32:12.408Z,93138.09
2023-04-20T20:34:39.042Z,93139.97
2023-04-20T20:37:05.458Z,93136.53
2023-04-20T20:39:32.912Z,93139.19
2023-04-20T20:41:59.625Z,93142.59
2023-04-20T20:44:27.951Z,93130.53
2023-04-20T20:46:54.850Z,93112.41
2023-04-20T20:49:21.411Z,93122.88
2023-04-20T20:51:47.849Z,93121.00
2023-04-20T20:54:15.432Z,93141.75
2023-04-20T20:56:43.541Z,93159.69
2023-04-20T20:59:10.359Z,93161.25
2023-04-20T21:01:37.336Z,93160.75
2023-04-20T21:04:04.723Z,93160.22
2023-04-20T21:06:33.062Z,93168.13
2023-04-20T21:08:59.927Z,93156.03
2023-04-20T21:11:26.445Z,93157.28
2023-04-20T21:13:53.244Z,93158.56
2023-04-20T21:16:19.657Z,93177.50
2023-04-20T21:18:46.444Z,93173.25
2023-04-20T21:21:13.476Z,93163.34
2023-04-20T21:23:39.864Z,93171.22
2023-04-20T21:26:06.610Z,93170.44
2023-04-20T21:28:33.006Z,93177.03
2023-04-20T21:30:59.440Z,93185.34
2023-04-20T21:33:26.266Z,93183.25
2023-04-20T21:35:52.702Z,93165.41
2023-04-20T21:38:19.450Z,93182.47
2023-04-20T21:40:45.865Z,93187.38
2023-04-20T21:43:12.317Z,93196.22
2023-04-20T21:45:38.911Z,93205.91
2023-04-20T21:48:05.696Z,93214.06
2023-04-20T21:50:32.107Z,93201.19
2023-04-20T21:52:59.168Z,93214.00
2023-04-20T21:55:25.646Z,93232.84
2023-04-20T21:57:52.065Z,93235.72
2023-04-20T22:00:19.066Z,93240.66
2023-04-20T22:02:45.876Z,93237.47
2023-04-20T22:05:12.875Z,93236.16
2023-04-20T22:07:40.133Z,93245.66
2023-04-20T22:10:07.681Z,93239.38
2023-04-20T22:12:39.750Z,93252.19
2023-04-20T22:15:11.843Z,93246.69
2023-04-20T22:17:38.321Z,93237.63
2023-04-20T22:20:07.917Z,93240.72
2023-04-20T22:22:35.974Z,93231.28
2023-04-20T22:25:04.325Z,93243.50
2023-04-20T22:27:31.643Z,93270.78
2023-04-20T22:29:58.433Z,93270.25
2023-04-20T22:32:25.200Z,93281.59
2023-04-20T22:34:52.021Z,93327.94
2023-04-20T22:37:18.743Z,93344.00
2023-04-20T22:39:45.233Z,93348.25
2023-04-20T22:42:12.124Z,93351.44
2023-04-20T22:44:38.556Z,93367.06
2023-04-20T22:47:05.165Z,93370.34
2023-04-20T22:49:32.218Z,93390.16
2023-04-20T22:51:58.689Z,93400.31
2023-04-20T22:54:25.222Z,93332.69
2023-04-20T22:56:52.114Z,93286.53
2023-04-20T22:59:18.777Z,93248.31
2023-04-20T23:01:45.601Z,93239.28
2023-04-20T23:04:12.649Z,93214.91
2023-04-20T23:06:39.113Z,93191.06
2023-04-20T23:09:08.416Z,93173.28
2023-04-20T23:11:38.877Z,93161.72
2023-04-20T23:14:06.885Z,93147.84
2023-04-20T23:16:33.707Z,93142.41
2023-04-20T23:19:01.438Z,93141.13
2023-04-20T23:21:28.865Z,93135.38
2023-04-20T23:23:58.692Z,93116.34
2023-04-20T23:26:26.045Z,93104.13
2023-04-20T23:28:53.483Z,93107.00
2023-04-20T23:31:20.490Z,93078.97
2023-04-20T23:33:48.119Z,93065.16
2023-04-20T23:36:14.775Z,93058.53
2023-04-20T23:38:41.622Z,93058.84
2023-04-20T23:41:12.896Z,93071.91
2023-04-20T23:43:39.856Z,93062.19
2023-04-20T23:46:07.332Z,93055.16
2023-04-20T23:48:34.910Z,93049.16
2023-04-20T23:51:02.246Z,93033.16
2023-04-20T23:53:28.692Z,93047.81
2023-04-20T23:55:56.051Z,93055.91
2023-04-20T23:58:26.911Z,93066.41
